sensor_id;sensor_type;location;lat;lon;timestamp;temperature;humidity
60848;DHT22;46681;47.696;9.140;2022-09-09T00:04:35;18.40;59.70
60848;DHT22;46681;47.696;9.140;2022-09-09T00:07:51;18.40;59.70
60848;DHT22;46681;47.696;9.140;2022-09-09T00:13:45;18.40;59.70
60848;DHT22;46681;47.696;9.140;2022-09-09T00:16:28;18.40;59.90
60848;DHT22;46681;47.696;9.140;2022-09-09T00:22:15;18.30;59.70
60848;DHT22;46681;47.696;9.140;2022-09-09T00:25:02;18.30;59.70
60848;DHT22;46681;47.696;9.140;2022-09-09T00:27:47;18.30;59.80
60848;DHT22;46681;47.696;9.140;2022-09-09T00:30:29;18.30;59.80
60848;DHT22;46681;47.696;9.140;2022-09-09T00:33:02;18.30;59.90
60848;DHT22;46681;47.696;9.140;2022-09-09T00:35:40;18.20;59.80
60848;DHT22;46681;47.696;9.140;2022-09-09T00:38:34;18.20;59.90
60848;DHT22;46681;47.696;9.140;2022-09-09T00:44:48;18.20;59.80
60848;DHT22;46681;47.696;9.140;2022-09-09T00:47:50;18.20;60.10
60848;DHT22;46681;47.696;9.140;2022-09-09T00:50:35;18.20;59.90
60848;DHT22;46681;47.696;9.140;2022-09-09T00:58:35;18.10;60.00
60848;DHT22;46681;47.696;9.140;2022-09-09T01:01:14;18.10;60.00
60848;DHT22;46681;47.696;9.140;2022-09-09T01:06:33;18.10;60.00
60848;DHT22;46681;47.696;9.140;2022-09-09T01:12:15;18.00;60.20
60848;DHT22;46681;47.696;9.140;2022-09-09T01:14:56;18.00;60.10
60848;DHT22;46681;47.696;9.140;2022-09-09T01:17:44;18.00;60.10
60848;DHT22;46681;47.696;9.140;2022-09-09T01:20:25;18.00;60.10
60848;DHT22;46681;47.696;9.140;2022-09-09T01:26:15;18.00;60.20
60848;DHT22;46681;47.696;9.140;2022-09-09T01:28:49;18.00;60.20
60848;DHT22;46681;47.696;9.140;2022-09-09T01:31:27;18.00;60.30
60848;DHT22;46681;47.696;9.140;2022-09-09T01:34:00;17.90;60.20
60848;DHT22;46681;47.696;9.140;2022-09-09T01:37:06;18.00;60.30
60848;DHT22;46681;47.696;9.140;2022-09-09T01:39:41;17.90;60.30
60848;DHT22;46681;47.696;9.140;2022-09-09T01:42:09;17.90;60.40
60848;DHT22;46681;47.696;9.140;2022-09-09T01:44:39;17.90;60.40
60848;DHT22;46681;47.696;9.140;2022-09-09T01:47:07;17.90;60.60
60848;DHT22;46681;47.696;9.140;2022-09-09T01:49:34;17.90;60.30
60848;DHT22;46681;47.696;9.140;2022-09-09T01:52:02;17.90;60.30
60848;DHT22;46681;47.696;9.140;2022-09-09T01:54:34;17.90;60.40
60848;DHT22;46681;47.696;9.140;2022-09-09T01:57:18;17.90;60.40
60848;DHT22;46681;47.696;9.140;2022-09-09T02:00:09;17.90;60.30
60848;DHT22;46681;47.696;9.140;2022-09-09T02:03:00;17.90;60.40
60848;DHT22;46681;47.696;9.140;2022-09-09T02:08:15;17.80;60.30
60848;DHT22;46681;47.696;9.140;2022-09-09T02:11:03;17.80;60.30
60848;DHT22;46681;47.696;9.140;2022-09-09T02:13:36;17.80;60.40
60848;DHT22;46681;47.696;9.140;2022-09-09T02:18:51;17.80;60.30
60848;DHT22;46681;47.696;9.140;2022-09-09T02:21:27;17.80;60.50
60848;DHT22;46681;47.696;9.140;2022-09-09T02:23:56;17.80;60.40
60848;DHT22;46681;47.696;9.140;2022-09-09T02:26:23;17.70;60.50
60848;DHT22;46681;47.696;9.140;2022-09-09T02:29:00;17.70;60.40
60848;DHT22;46681;47.696;9.140;2022-09-09T02:31:28;17.70;60.40
60848;DHT22;46681;47.696;9.140;2022-09-09T02:34:01;17.70;60.40
60848;DHT22;46681;47.696;9.140;2022-09-09T02:36:31;17.70;60.50
60848;DHT22;46681;47.696;9.140;2022-09-09T02:39:08;17.70;60.40
60848;DHT22;46681;47.696;9.140;2022-09-09T02:41:37;17.70;60.60
60848;DHT22;46681;47.696;9.140;2022-09-09T02:44:15;17.70;60.50
60848;DHT22;46681;47.696;9.140;2022-09-09T02:52:06;17.70;60.60
60848;DHT22;46681;47.696;9.140;2022-09-09T02:54:37;17.70;60.60
60848;DHT22;46681;47.696;9.140;2022-09-09T02:57:27;17.70;60.60
60848;DHT22;46681;47.696;9.140;2022-09-09T02:59:59;17.70;60.70
60848;DHT22;46681;47.696;9.140;2022-09-09T03:02:27;17.70;60.70
60848;DHT22;46681;47.696;9.140;2022-09-09T03:04:56;17.70;60.70
60848;DHT22;46681;47.696;9.140;2022-09-09T03:07:24;17.70;60.70
60848;DHT22;46681;47.696;9.140;2022-09-09T03:09:53;17.70;60.80
60848;DHT22;46681;47.696;9.140;2022-09-09T03:12:19;17.70;60.80
60848;DHT22;46681;47.696;9.140;2022-09-09T03:14:46;17.70;60.80
60848;DHT22;46681;47.696;9.140;2022-09-09T03:17:12;17.80;60.80
60848;DHT22;46681;47.696;9.140;2022-09-09T03:19:39;17.80;60.80
60848;DHT22;46681;47.696;9.140;2022-09-09T03:22:10;17.80;60.80
60848;DHT22;46681;47.696;9.140;2022-09-09T03:24:37;17.80;60.80
60848;DHT22;46681;47.696;9.140;2022-09-09T03:27:03;17.80;60.80
60848;DHT22;46681;47.696;9.140;2022-09-09T03:29:29;17.80;60.80
60848;DHT22;46681;47.696;9.140;2022-09-09T03:31:56;17.80;60.80
60848;DHT22;46681;47.696;9.140;2022-09-09T03:34:25;17.80;60.80
60848;DHT22;46681;47.696;9.140;2022-09-09T03:36:54;17.80;60.80
60848;DHT22;46681;47.696;9.140;2022-09-09T03:39:28;17.80;60.90
60848;DHT22;46681;47.696;9.140;2022-09-09T03:41:54;17.80;60.80
60848;DHT22;46681;47.696;9.140;2022-09-09T03:44:23;17.80;60.80
60848;DHT22;46681;47.696;9.140;2022-09-09T03:46:49;17.80;60.80
60848;DHT22;46681;47.696;9.140;2022-09-09T03:49:19;17.80;60.90
60848;DHT22;46681;47.696;9.140;2022-09-09T03:51:45;17.80;60.90
60848;DHT22;46681;47.696;9.140;2022-09-09T03:54:18;17.80;60.80
60848;DHT22;46681;47.696;9.140;2022-09-09T03:56:43;17.80;60.80
60848;DHT22;46681;47.696;9.140;2022-09-09T03:59:10;17.80;60.90
60848;DHT22;46681;47.696;9.140;2022-09-09T04:01:38;17.80;60.80
60848;DHT22;46681;47.696;9.140;2022-09-09T04:04:05;17.80;60.80
60848;DHT22;46681;47.696;9.140;2022-09-09T04:06:31;17.80;60.80
60848;DHT22;46681;47.696;9.140;2022-09-09T04:08:59;17.80;61.00
60848;DHT22;46681;47.696;9.140;2022-09-09T04:11:29;17.90;61.00
60848;DHT22;46681;47.696;9.140;2022-09-09T04:13:56;17.80;60.80
60848;DHT22;46681;47.696;9.140;2022-09-09T04:16:23;17.90;60.80
60848;DHT22;46681;47.696;9.140;2022-09-09T04:18:52;17.80;60.80
60848;DHT22;46681;47.696;9.140;2022-09-09T04:21:19;17.80;60.90
60848;DHT22;46681;47.696;9.140;2022-09-09T04:23:47;17.80;61.00
60848;DHT22;46681;47.696;9.140;2022-09-09T04:26:14;17.90;61.00
60848;DHT22;46681;47.696;9.140;2022-09-09T04:28:41;17.90;60.90
60848;DHT22;46681;47.696;9.140;2022-09-09T04:33:49;17.90;61.00
60848;DHT22;46681;47.696;9.140;2022-09-09T04:36:23;17.80;61.00
60848;DHT22;46681;47.696;9.140;2022-09-09T04:38:54;17.90;61.00
60848;DHT22;46681;47.696;9.140;2022-09-09T04:41:20;17.90;61.00
60848;DHT22;46681;47.696;9.140;2022-09-09T04:43:56;17.90;61.10
60848;DHT22;46681;47.696;9.140;2022-09-09T04:46:27;17.90;61.10
60848;DHT22;46681;47.696;9.140;2022-09-09T04:48:56;17.90;61.10
60848;DHT22;46681;47.696;9.140;2022-09-09T04:51:27;17.90;61.10
60848;DHT22;46681;47.696;9.140;2022-09-09T04:54:08;17.90;61.10
60848;DHT22;46681;47.696;9.140;2022-09-09T04:56:36;17.90;61.20
60848;DHT22;46681;47.696;9.140;2022-09-09T04:59:03;17.90;61.10
60848;DHT22;46681;47.696;9.140;2022-09-09T05:01:32;17.90;61.30
60848;DHT22;46681;47.696;9.140;2022-09-09T05:04:02;17.90;61.30
60848;DHT22;46681;47.696;9.140;2022-09-09T05:06:28;17.90;61.20
60848;DHT22;46681;47.696;9.140;2022-09-09T05:08:59;17.90;61.80
60848;DHT22;46681;47.696;9.140;2022-09-09T05:11:31;17.90;61.30
60848;DHT22;46681;47.696;9.140;2022-09-09T05:14:00;17.90;61.30
60848;DHT22;46681;47.696;9.140;2022-09-09T05:16:28;17.90;61.40
60848;DHT22;46681;47.696;9.140;2022-09-09T05:18:54;17.90;61.40
60848;DHT22;46681;47.696;9.140;2022-09-09T05:21:29;17.90;61.40
60848;DHT22;46681;47.696;9.140;2022-09-09T05:23:58;17.90;61.40
60848;DHT22;46681;47.696;9.140;2022-09-09T05:26:26;17.90;61.40
60848;DHT22;46681;47.696;9.140;2022-09-09T05:28:55;17.90;61.40
60848;DHT22;46681;47.696;9.140;2022-09-09T05:31:24;17.90;61.50
60848;DHT22;46681;47.696;9.140;2022-09-09T05:34:04;18.00;61.50
60848;DHT22;46681;47.696;9.140;2022-09-09T05:36:36;18.00;61.50
60848;DHT22;46681;47.696;9.140;2022-09-09T05:39:07;18.00;61.60
60848;DHT22;46681;47.696;9.140;2022-09-09T05:41:35;17.90;61.50
60848;DHT22;46681;47.696;9.140;2022-09-09T05:44:08;18.00;61.60
60848;DHT22;46681;47.696;9.140;2022-09-09T05:46:46;18.00;61.50
60848;DHT22;46681;47.696;9.140;2022-09-09T05:49:23;17.90;61.50
60848;DHT22;46681;47.696;9.140;2022-09-09T05:51:50;18.00;61.60
60848;DHT22;46681;47.696;9.140;2022-09-09T05:54:27;18.00;61.60
60848;DHT22;46681;47.696;9.140;2022-09-09T05:57:03;18.00;61.60
60848;DHT22;46681;47.696;9.140;2022-09-09T05:59:30;18.00;61.60
60848;DHT22;46681;47.696;9.140;2022-09-09T06:02:17;18.00;61.60
60848;DHT22;46681;47.696;9.140;2022-09-09T06:04:44;18.00;61.60
60848;DHT22;46681;47.696;9.140;2022-09-09T06:07:14;18.00;61.60
60848;DHT22;46681;47.696;9.140;2022-09-09T06:09:46;18.00;61.60
60848;DHT22;46681;47.696;9.140;2022-09-09T06:12:22;18.00;61.60
60848;DHT22;46681;47.696;9.140;2022-09-09T06:14:51;18.00;61.60
60848;DHT22;46681;47.696;9.140;2022-09-09T06:17:23;18.10;61.90
60848;DHT22;46681;47.696;9.140;2022-09-09T06:19:49;18.10;65.50
60848;DHT22;46681;47.696;9.140;2022-09-09T06:22:14;18.10;66.80
60848;DHT22;46681;47.696;9.140;2022-09-09T06:24:43;18.20;67.10
60848;DHT22;46681;47.696;9.140;2022-09-09T06:27:10;18.30;67.30
60848;DHT22;46681;47.696;9.140;2022-09-09T06:29:42;18.30;67.10
60848;DHT22;46681;47.696;9.140;2022-09-09T06:32:11;18.40;67.10
60848;DHT22;46681;47.696;9.140;2022-09-09T06:34:47;18.40;67.00
60848;DHT22;46681;47.696;9.140;2022-09-09T06:37:21;18.50;66.90
60848;DHT22;46681;47.696;9.140;2022-09-09T06:39:52;18.50;66.90
60848;DHT22;46681;47.696;9.140;2022-09-09T06:42:27;18.50;66.80
60848;DHT22;46681;47.696;9.140;2022-09-09T06:44:56;18.60;66.70
60848;DHT22;46681;47.696;9.140;2022-09-09T06:47:28;18.70;66.70
60848;DHT22;46681;47.696;9.140;2022-09-09T06:50:05;18.70;66.70
60848;DHT22;46681;47.696;9.140;2022-09-09T06:52:46;18.70;66.50
60848;DHT22;46681;47.696;9.140;2022-09-09T06:55:22;18.70;66.20
60848;DHT22;46681;47.696;9.140;2022-09-09T06:57:49;18.70;65.80
60848;DHT22;46681;47.696;9.140;2022-09-09T07:00:28;18.70;65.60
60848;DHT22;46681;47.696;9.140;2022-09-09T07:03:10;18.70;65.40
60848;DHT22;46681;47.696;9.140;2022-09-09T07:08:39;18.70;65.00
60848;DHT22;46681;47.696;9.140;2022-09-09T07:11:16;18.70;64.90
60848;DHT22;46681;47.696;9.140;2022-09-09T07:13:45;18.70;64.60
60848;DHT22;46681;47.696;9.140;2022-09-09T07:16:23;18.80;64.50
60848;DHT22;46681;47.696;9.140;2022-09-09T07:19:13;18.80;64.30
60848;DHT22;46681;47.696;9.140;2022-09-09T07:21:39;18.80;64.10
60848;DHT22;46681;47.696;9.140;2022-09-09T07:24:14;18.90;64.00
60848;DHT22;46681;47.696;9.140;2022-09-09T07:26:47;18.90;63.80
60848;DHT22;46681;47.696;9.140;2022-09-09T07:29:17;19.00;64.10
60848;DHT22;46681;47.696;9.140;2022-09-09T07:32:09;19.10;64.80
60848;DHT22;46681;47.696;9.140;2022-09-09T07:34:39;19.20;63.80
60848;DHT22;46681;47.696;9.140;2022-09-09T07:37:08;19.30;63.30
60848;DHT22;46681;47.696;9.140;2022-09-09T07:39:51;19.40;62.80
60848;DHT22;46681;47.696;9.140;2022-09-09T07:42:17;19.40;62.30
60848;DHT22;46681;47.696;9.140;2022-09-09T07:44:45;19.50;62.50
60848;DHT22;46681;47.696;9.140;2022-09-09T07:47:13;19.50;62.70
60848;DHT22;46681;47.696;9.140;2022-09-09T07:49:52;19.60;62.50
60848;DHT22;46681;47.696;9.140;2022-09-09T07:52:23;19.60;61.90
60848;DHT22;46681;47.696;9.140;2022-09-09T07:54:52;19.70;61.80
60848;DHT22;46681;47.696;9.140;2022-09-09T07:57:19;19.80;61.40
60848;DHT22;46681;47.696;9.140;2022-09-09T07:59:52;20.00;61.10
60848;DHT22;46681;47.696;9.140;2022-09-09T08:02:40;20.10;60.70
60848;DHT22;46681;47.696;9.140;2022-09-09T08:05:37;20.20;60.30
60848;DHT22;46681;47.696;9.140;2022-09-09T08:08:42;20.40;59.90
60848;DHT22;46681;47.696;9.140;2022-09-09T08:11:16;20.50;59.70
60848;DHT22;46681;47.696;9.140;2022-09-09T08:13:43;20.60;59.40
60848;DHT22;46681;47.696;9.140;2022-09-09T08:16:19;20.80;59.30
60848;DHT22;46681;47.696;9.140;2022-09-09T08:18:47;20.90;59.30
60848;DHT22;46681;47.696;9.140;2022-09-09T08:21:35;21.00;59.10
60848;DHT22;46681;47.696;9.140;2022-09-09T08:24:11;21.10;58.80
60848;DHT22;46681;47.696;9.140;2022-09-09T08:26:59;21.20;58.50
60848;DHT22;46681;47.696;9.140;2022-09-09T08:29:36;21.40;58.40
60848;DHT22;46681;47.696;9.140;2022-09-09T08:32:15;21.50;58.20
60848;DHT22;46681;47.696;9.140;2022-09-09T08:34:45;21.60;58.10
60848;DHT22;46681;47.696;9.140;2022-09-09T08:37:14;21.60;58.00
60848;DHT22;46681;47.696;9.140;2022-09-09T08:39:42;21.70;57.90
60848;DHT22;46681;47.696;9.140;2022-09-09T08:42:41;21.70;57.90
60848;DHT22;46681;47.696;9.140;2022-09-09T08:51:04;21.60;57.70
60848;DHT22;46681;47.696;9.140;2022-09-09T08:53:48;21.60;57.90
60848;DHT22;46681;47.696;9.140;2022-09-09T08:56:37;21.60;57.90
60848;DHT22;46681;47.696;9.140;2022-09-09T08:59:18;21.80;57.90
60848;DHT22;46681;47.696;9.140;2022-09-09T09:02:00;21.90;57.60
60848;DHT22;46681;47.696;9.140;2022-09-09T09:07:55;22.20;56.90
60848;DHT22;46681;47.696;9.140;2022-09-09T09:19:35;22.80;56.00
60848;DHT22;46681;47.696;9.140;2022-09-09T09:25:21;23.00;55.50
60848;DHT22;46681;47.696;9.140;2022-09-09T09:31:16;23.00;55.30
60848;DHT22;46681;47.696;9.140;2022-09-09T09:34:07;22.90;55.30
60848;DHT22;46681;47.696;9.140;2022-09-09T09:36:52;22.90;55.40
60848;DHT22;46681;47.696;9.140;2022-09-09T09:39:46;22.90;55.50
60848;DHT22;46681;47.696;9.140;2022-09-09T09:42:27;22.80;55.50
60848;DHT22;46681;47.696;9.140;2022-09-09T09:48:15;22.90;55.70
60848;DHT22;46681;47.696;9.140;2022-09-09T09:53:46;23.00;55.50
60848;DHT22;46681;47.696;9.140;2022-09-09T09:56:29;23.20;55.30
60848;DHT22;46681;47.696;9.140;2022-09-09T09:59:04;23.40;55.00
60848;DHT22;46681;47.696;9.140;2022-09-09T10:01:42;23.60;54.70
60848;DHT22;46681;47.696;9.140;2022-09-09T10:04:28;23.80;54.30
60848;DHT22;46681;47.696;9.140;2022-09-09T10:07:26;24.00;53.80
60848;DHT22;46681;47.696;9.140;2022-09-09T10:10:48;24.10;53.50
60848;DHT22;46681;47.696;9.140;2022-09-09T10:19:42;23.90;53.50
60848;DHT22;46681;47.696;9.140;2022-09-09T10:22:33;23.80;53.90
60848;DHT22;46681;47.696;9.140;2022-09-09T10:44:32;24.80;52.00
60848;DHT22;46681;47.696;9.140;2022-09-09T10:50:51;25.60;50.80
60848;DHT22;46681;47.696;9.140;2022-09-09T11:05:20;25.40;50.70
60848;DHT22;46681;47.696;9.140;2022-09-09T11:08:20;25.10;50.90
60848;DHT22;46681;47.696;9.140;2022-09-09T11:14:15;24.80;51.70
60848;DHT22;46681;47.696;9.140;2022-09-09T11:17:10;24.60;51.70
60848;DHT22;46681;47.696;9.140;2022-09-09T11:19:51;24.50;51.30
60848;DHT22;46681;47.696;9.140;2022-09-09T11:22:37;24.40;51.80
60848;DHT22;46681;47.696;9.140;2022-09-09T11:25:21;24.40;52.00
60848;DHT22;46681;47.696;9.140;2022-09-09T11:31:43;24.40;52.20
60848;DHT22;46681;47.696;9.140;2022-09-09T11:42:49;24.90;51.50
60848;DHT22;46681;47.696;9.140;2022-09-09T11:45:31;25.20;50.80
60848;DHT22;46681;47.696;9.140;2022-09-09T11:48:35;25.30;50.40
60848;DHT22;46681;47.696;9.140;2022-09-09T11:53:54;25.60;47.60
60848;DHT22;46681;47.696;9.140;2022-09-09T11:59:29;25.80;48.50
60848;DHT22;46681;47.696;9.140;2022-09-09T12:02:22;26.20;48.00
60848;DHT22;46681;47.696;9.140;2022-09-09T12:05:18;26.60;47.40
60848;DHT22;46681;47.696;9.140;2022-09-09T12:08:01;27.00;47.60
60848;DHT22;46681;47.696;9.140;2022-09-09T12:11:22;27.30;46.50
60848;DHT22;46681;47.696;9.140;2022-09-09T12:13:56;27.40;46.40
60848;DHT22;46681;47.696;9.140;2022-09-09T12:16:38;27.70;46.00
60848;DHT22;46681;47.696;9.140;2022-09-09T12:19:27;27.90;45.60
60848;DHT22;46681;47.696;9.140;2022-09-09T12:25:23;28.30;44.80
60848;DHT22;46681;47.696;9.140;2022-09-09T12:34:41;28.90;44.80
60848;DHT22;46681;47.696;9.140;2022-09-09T12:37:48;29.10;44.10
60848;DHT22;46681;47.696;9.140;2022-09-09T12:40:40;29.20;44.10
60848;DHT22;46681;47.696;9.140;2022-09-09T12:43:26;29.50;43.90
60848;DHT22;46681;47.696;9.140;2022-09-09T12:46:21;29.60;43.80
60848;DHT22;46681;47.696;9.140;2022-09-09T12:48:59;29.70;43.60
60848;DHT22;46681;47.696;9.140;2022-09-09T12:51:46;29.90;43.50
60848;DHT22;46681;47.696;9.140;2022-09-09T12:54:16;29.60;43.40
60848;DHT22;46681;47.696;9.140;2022-09-09T12:57:11;29.30;43.70
60848;DHT22;46681;47.696;9.140;2022-09-09T13:03:03;28.80;44.30
60848;DHT22;46681;47.696;9.140;2022-09-09T13:05:44;28.50;44.80
60848;DHT22;46681;47.696;9.140;2022-09-09T13:08:15;28.40;45.30
60848;DHT22;46681;47.696;9.140;2022-09-09T13:14:23;28.90;45.10
60848;DHT22;46681;47.696;9.140;2022-09-09T13:17:02;29.30;44.70
60848;DHT22;46681;47.696;9.140;2022-09-09T13:19:54;29.50;44.30
60848;DHT22;46681;47.696;9.140;2022-09-09T13:28:19;29.20;44.40
60848;DHT22;46681;47.696;9.140;2022-09-09T13:32:06;29.00;44.30
60848;DHT22;46681;47.696;9.140;2022-09-09T13:35:44;29.10;44.70
60848;DHT22;46681;47.696;9.140;2022-09-09T13:37:42;29.40;44.60
60848;DHT22;46681;47.696;9.140;2022-09-09T13:40:24;29.60;44.10
60848;DHT22;46681;47.696;9.140;2022-09-09T13:43:18;29.50;43.40
60848;DHT22;46681;47.696;9.140;2022-09-09T13:49:28;29.80;43.60
60848;DHT22;46681;47.696;9.140;2022-09-09T13:52:42;29.80;42.80
60848;DHT22;46681;47.696;9.140;2022-09-09T13:55:39;29.30;43.00
60848;DHT22;46681;47.696;9.140;2022-09-09T13:58:33;29.10;43.10
60848;DHT22;46681;47.696;9.140;2022-09-09T14:01:18;29.00;43.50
60848;DHT22;46681;47.696;9.140;2022-09-09T14:03:48;29.00;43.30
60848;DHT22;46681;47.696;9.140;2022-09-09T14:09:16;28.60;43.20
60848;DHT22;46681;47.696;9.140;2022-09-09T14:12:01;28.20;44.00
60848;DHT22;46681;47.696;9.140;2022-09-09T14:14:47;28.00;44.70
60848;DHT22;46681;47.696;9.140;2022-09-09T14:17:24;28.10;44.10
60848;DHT22;46681;47.696;9.140;2022-09-09T14:20:16;27.90;44.30
60848;DHT22;46681;47.696;9.140;2022-09-09T14:23:02;27.80;44.80
60848;DHT22;46681;47.696;9.140;2022-09-09T14:25:35;27.60;44.80
60848;DHT22;46681;47.696;9.140;2022-09-09T14:28:23;27.40;45.10
60848;DHT22;46681;47.696;9.140;2022-09-09T14:31:17;27.10;45.40
60848;DHT22;46681;47.696;9.140;2022-09-09T14:33:44;27.00;45.80
60848;DHT22;46681;47.696;9.140;2022-09-09T14:36:27;27.00;45.90
60848;DHT22;46681;47.696;9.140;2022-09-09T14:38:54;26.90;46.00
60848;DHT22;46681;47.696;9.140;2022-09-09T14:41:29;26.70;46.20
60848;DHT22;46681;47.696;9.140;2022-09-09T14:44:08;26.50;45.60
60848;DHT22;46681;47.696;9.140;2022-09-09T14:49:46;26.10;43.20
60848;DHT22;46681;47.696;9.140;2022-09-09T14:52:44;26.10;42.30
60848;DHT22;46681;47.696;9.140;2022-09-09T14:55:35;26.00;42.70
60848;DHT22;46681;47.696;9.140;2022-09-09T15:01:17;25.90;43.90
60848;DHT22;46681;47.696;9.140;2022-09-09T15:03:53;25.90;44.20
60848;DHT22;46681;47.696;9.140;2022-09-09T15:06:35;25.70;44.70
60848;DHT22;46681;47.696;9.140;2022-09-09T15:09:28;25.60;43.90
60848;DHT22;46681;47.696;9.140;2022-09-09T15:12:13;25.50;44.20
60848;DHT22;46681;47.696;9.140;2022-09-09T15:14:51;25.50;44.00
60848;DHT22;46681;47.696;9.140;2022-09-09T15:20:22;25.60;44.10
60848;DHT22;46681;47.696;9.140;2022-09-09T15:22:56;25.70;45.40
60848;DHT22;46681;47.696;9.140;2022-09-09T15:25:31;25.70;45.70
60848;DHT22;46681;47.696;9.140;2022-09-09T15:28:00;25.70;46.20
60848;DHT22;46681;47.696;9.140;2022-09-09T15:30:30;25.70;46.30
60848;DHT22;46681;47.696;9.140;2022-09-09T15:32:59;25.80;46.50
60848;DHT22;46681;47.696;9.140;2022-09-09T15:35:27;25.60;45.60
60848;DHT22;46681;47.696;9.140;2022-09-09T15:38:12;25.60;45.90
60848;DHT22;46681;47.696;9.140;2022-09-09T15:40:56;25.60;46.10
60848;DHT22;46681;47.696;9.140;2022-09-09T15:43:24;25.60;46.50
60848;DHT22;46681;47.696;9.140;2022-09-09T15:46:21;25.50;42.60
60848;DHT22;46681;47.696;9.140;2022-09-09T15:48:56;25.40;43.60
60848;DHT22;46681;47.696;9.140;2022-09-09T15:51:34;25.40;44.00
60848;DHT22;46681;47.696;9.140;2022-09-09T15:54:23;25.40;43.70
60848;DHT22;46681;47.696;9.140;2022-09-09T15:57:01;25.40;43.30
60848;DHT22;46681;47.696;9.140;2022-09-09T15:59:37;25.30;42.90
60848;DHT22;46681;47.696;9.140;2022-09-09T16:02:10;25.10;41.50
60848;DHT22;46681;47.696;9.140;2022-09-09T16:04:37;24.80;40.70
60848;DHT22;46681;47.696;9.140;2022-09-09T16:07:05;24.60;40.50
60848;DHT22;46681;47.696;9.140;2022-09-09T16:09:36;24.40;40.90
60848;DHT22;46681;47.696;9.140;2022-09-09T16:12:12;24.20;40.80
60848;DHT22;46681;47.696;9.140;2022-09-09T16:14:40;24.10;41.30
60848;DHT22;46681;47.696;9.140;2022-09-09T16:17:20;24.00;40.60
60848;DHT22;46681;47.696;9.140;2022-09-09T16:19:50;23.90;41.00
60848;DHT22;46681;47.696;9.140;2022-09-09T16:22:23;23.80;41.10
60848;DHT22;46681;47.696;9.140;2022-09-09T16:24:59;23.70;41.40
60848;DHT22;46681;47.696;9.140;2022-09-09T16:27:26;23.70;41.00
60848;DHT22;46681;47.696;9.140;2022-09-09T16:30:12;23.60;41.10
60848;DHT22;46681;47.696;9.140;2022-09-09T16:32:39;23.60;41.90
60848;DHT22;46681;47.696;9.140;2022-09-09T16:35:32;23.50;42.10
60848;DHT22;46681;47.696;9.140;2022-09-09T16:38:24;23.50;41.90
60848;DHT22;46681;47.696;9.140;2022-09-09T16:41:08;23.40;42.00
60848;DHT22;46681;47.696;9.140;2022-09-09T16:44:22;23.30;42.50
60848;DHT22;46681;47.696;9.140;2022-09-09T16:46:59;23.30;42.50
60848;DHT22;46681;47.696;9.140;2022-09-09T16:49:47;23.20;42.90
60848;DHT22;46681;47.696;9.140;2022-09-09T16:52:16;23.00;43.10
60848;DHT22;46681;47.696;9.140;2022-09-09T16:54:49;23.00;43.50
60848;DHT22;46681;47.696;9.140;2022-09-09T16:57:15;22.90;43.60
60848;DHT22;46681;47.696;9.140;2022-09-09T16:59:48;22.90;43.70
60848;DHT22;46681;47.696;9.140;2022-09-09T17:02:43;22.80;43.60
60848;DHT22;46681;47.696;9.140;2022-09-09T17:05:15;22.90;43.70
60848;DHT22;46681;47.696;9.140;2022-09-09T17:08:09;22.90;43.70
60848;DHT22;46681;47.696;9.140;2022-09-09T17:10:43;22.80;43.70
60848;DHT22;46681;47.696;9.140;2022-09-09T17:13:47;22.80;43.70
60848;DHT22;46681;47.696;9.140;2022-09-09T17:16:45;22.80;43.90
60848;DHT22;46681;47.696;9.140;2022-09-09T17:19:18;22.80;44.00
60848;DHT22;46681;47.696;9.140;2022-09-09T17:21:59;22.70;44.20
60848;DHT22;46681;47.696;9.140;2022-09-09T17:24:52;22.70;44.30
60848;DHT22;46681;47.696;9.140;2022-09-09T17:27:31;22.70;44.50
60848;DHT22;46681;47.696;9.140;2022-09-09T17:29:59;22.70;44.70
60848;DHT22;46681;47.696;9.140;2022-09-09T17:35:30;22.60;45.10
60848;DHT22;46681;47.696;9.140;2022-09-09T17:38:13;22.50;45.40
60848;DHT22;46681;47.696;9.140;2022-09-09T17:41:07;22.50;45.60
60848;DHT22;46681;47.696;9.140;2022-09-09T17:44:17;22.50;46.00
60848;DHT22;46681;47.696;9.140;2022-09-09T17:46:47;22.50;46.40
60848;DHT22;46681;47.696;9.140;2022-09-09T17:52:29;22.40;46.90
60848;DHT22;46681;47.696;9.140;2022-09-09T17:55:18;22.30;47.10
60848;DHT22;46681;47.696;9.140;2022-09-09T18:01:07;22.20;48.10
60848;DHT22;46681;47.696;9.140;2022-09-09T18:03:51;22.20;47.90
60848;DHT22;46681;47.696;9.140;2022-09-09T18:09:55;21.80;49.40
60848;DHT22;46681;47.696;9.140;2022-09-09T18:12:30;21.60;49.40
60848;DHT22;46681;47.696;9.140;2022-09-09T18:18:07;21.60;49.50
60848;DHT22;46681;47.696;9.140;2022-09-09T18:20:41;21.50;50.00
60848;DHT22;46681;47.696;9.140;2022-09-09T18:23:17;21.50;50.40
60848;DHT22;46681;47.696;9.140;2022-09-09T18:25:49;21.50;51.00
60848;DHT22;46681;47.696;9.140;2022-09-09T18:28:25;21.50;51.30
60848;DHT22;46681;47.696;9.140;2022-09-09T18:31:08;21.40;51.90
60848;DHT22;46681;47.696;9.140;2022-09-09T18:33:59;21.40;52.40
60848;DHT22;46681;47.696;9.140;2022-09-09T18:36:33;21.30;52.60
60848;DHT22;46681;47.696;9.140;2022-09-09T18:39:16;21.30;53.10
60848;DHT22;46681;47.696;9.140;2022-09-09T18:41:53;21.20;53.70
60848;DHT22;46681;47.696;9.140;2022-09-09T18:44:39;21.20;53.90
60848;DHT22;46681;47.696;9.140;2022-09-09T18:47:15;21.20;54.40
60848;DHT22;46681;47.696;9.140;2022-09-09T18:49:49;21.10;54.70
60848;DHT22;46681;47.696;9.140;2022-09-09T18:52:19;21.10;55.20
60848;DHT22;46681;47.696;9.140;2022-09-09T18:54:51;21.00;55.40
60848;DHT22;46681;47.696;9.140;2022-09-09T18:57:19;21.00;55.70
60848;DHT22;46681;47.696;9.140;2022-09-09T18:59:46;20.90;55.90
60848;DHT22;46681;47.696;9.140;2022-09-09T19:02:15;20.90;56.20
60848;DHT22;46681;47.696;9.140;2022-09-09T19:04:47;20.90;56.30
60848;DHT22;46681;47.696;9.140;2022-09-09T19:07:22;20.80;56.60
60848;DHT22;46681;47.696;9.140;2022-09-09T19:09:51;20.80;56.80
60848;DHT22;46681;47.696;9.140;2022-09-09T19:12:17;20.70;56.90
60848;DHT22;46681;47.696;9.140;2022-09-09T19:14:49;20.70;57.20
60848;DHT22;46681;47.696;9.140;2022-09-09T19:17:17;20.70;57.30
60848;DHT22;46681;47.696;9.140;2022-09-09T19:19:45;20.60;57.50
60848;DHT22;46681;47.696;9.140;2022-09-09T19:22:16;20.60;57.60
60848;DHT22;46681;47.696;9.140;2022-09-09T19:24:54;20.60;57.60
60848;DHT22;46681;47.696;9.140;2022-09-09T19:27:27;20.50;57.80
60848;DHT22;46681;47.696;9.140;2022-09-09T19:29:52;20.50;58.00
60848;DHT22;46681;47.696;9.140;2022-09-09T19:32:20;20.40;58.00
60848;DHT22;46681;47.696;9.140;2022-09-09T19:35:04;20.40;58.10
60848;DHT22;46681;47.696;9.140;2022-09-09T19:37:32;20.30;58.30
60848;DHT22;46681;47.696;9.140;2022-09-09T19:39:58;20.30;58.20
60848;DHT22;46681;47.696;9.140;2022-09-09T19:42:30;20.30;58.50
60848;DHT22;46681;47.696;9.140;2022-09-09T19:44:57;20.30;58.60